createdAt,value
2022-12-13T00:02:41.568Z,-3.91
2022-12-13T00:07:35.900Z,-4.00
2022-12-13T00:12:28.203Z,-4.02
2022-12-13T00:17:22.289Z,-3.98
2022-12-13T00:22:29.732Z,-4.00
2022-12-13T00:27:24.451Z,-4.02
2022-12-13T00:32:18.399Z,-4.05
2022-12-13T00:37:31.908Z,-4.07
2022-12-13T00:42:28.995Z,-4.13
2022-12-13T00:47:30.850Z,-4.12
2022-12-13T00:52:26.326Z,-4.10
2022-12-13T00:57:20.747Z,-4.14
2022-12-13T01:02:16.997Z,-4.21
2022-12-13T01:07:10.434Z,-4.21
2022-12-13T01:12:08.093Z,-4.22
2022-12-13T01:17:15.622Z,-4.23
2022-12-13T01:22:14.810Z,-4.24
2022-12-13T01:27:12.964Z,-4.23
2022-12-13T01:32:06.793Z,-4.24
2022-12-13T01:36:59.527Z,-4.24
2022-12-13T01:42:04.380Z,-4.25
2022-12-13T01:47:00.411Z,-4.35
2022-12-13T01:51:59.703Z,-4.28
2022-12-13T01:57:00.659Z,-4.31
2022-12-13T02:02:12.825Z,-4.33
2022-12-13T02:07:34.350Z,-4.33
2022-12-13T02:12:33.273Z,-4.48
2022-12-13T02:17:51.273Z,-4.36
2022-12-13T02:23:05.002Z,-4.37
2022-12-13T02:28:34.221Z,-4.45
2022-12-13T02:34:02.853Z,-4.42
2022-12-13T02:39:04.553Z,-4.38
2022-12-13T02:44:21.777Z,-4.40
2022-12-13T02:49:19.687Z,-4.41
2022-12-13T02:54:14.025Z,-4.41
2022-12-13T02:59:12.529Z,-4.40
2022-12-13T03:04:16.757Z,-4.44
2022-12-13T03:09:31.122Z,-4.37
2022-12-13T03:14:34.735Z,-4.38
2022-12-13T03:19:38.441Z,-4.35
2022-12-13T03:24:33.400Z,-4.35
2022-12-13T03:29:32.607Z,-4.39
2022-12-13T03:34:43.632Z,-4.40
2022-12-13T03:39:44.595Z,-4.41
2022-12-13T03:44:35.642Z,-4.46
2022-12-13T03:49:35.325Z,-4.43
2022-12-13T03:54:29.696Z,-4.44
2022-12-13T03:59:23.565Z,-4.45
2022-12-13T04:04:18.920Z,-4.44
2022-12-13T04:09:12.790Z,-4.45
2022-12-13T04:14:04.542Z,-4.46
2022-12-13T04:18:59.676Z,-4.47
2022-12-13T04:23:54.964Z,-4.48
2022-12-13T04:28:52.557Z,-4.50
2022-12-13T04:33:45.144Z,-4.53
2022-12-13T04:38:41.266Z,-4.60
2022-12-13T04:43:32.390Z,-4.56
2022-12-13T04:48:30.209Z,-4.66
2022-12-13T04:53:27.123Z,-4.62
2022-12-13T04:58:30.913Z,-4.77
2022-12-13T05:03:28.991Z,-4.67
2022-12-13T05:08:20.674Z,-4.70
2022-12-13T05:13:19.107Z,-4.70
2022-12-13T05:18:16.100Z,-4.74
2022-12-13T05:23:22.446Z,-4.71
2022-12-13T05:28:27.844Z,-4.72
2022-12-13T05:33:25.812Z,-4.71
2022-12-13T05:38:26.140Z,-4.72
2022-12-13T05:43:21.732Z,-4.75
2022-12-13T05:48:26.320Z,-4.76
2022-12-13T05:53:32.183Z,-4.79
2022-12-13T05:58:23.744Z,-4.83
2022-12-13T06:03:17.136Z,-4.86
2022-12-13T06:08:24.628Z,-4.89
2022-12-13T06:13:21.837Z,-4.93
2022-12-13T06:18:25.651Z,-4.96
2022-12-13T06:23:24.991Z,-4.93
2022-12-13T06:28:21.026Z,-4.94
2022-12-13T06:33:14.463Z,-4.95
2022-12-13T06:38:21.993Z,-4.96
2022-12-13T06:43:26.494Z,-5.01
2022-12-13T06:48:20.404Z,-5.03
2022-12-13T06:53:12.226Z,-5.06
2022-12-13T06:58:12.873Z,-5.08
2022-12-13T07:03:12.367Z,-5.10
2022-12-13T07:08:10.261Z,-5.16
2022-12-13T07:13:03.159Z,-5.15
2022-12-13T07:17:56.706Z,-5.16
2022-12-13T07:23:00.023Z,-5.17
2022-12-13T07:27:53.110Z,-5.19
2022-12-13T07:32:53.706Z,-5.19
2022-12-13T07:37:51.947Z,-5.20
2022-12-13T07:42:47.743Z,-5.31
2022-12-13T07:47:44.345Z,-5.23
2022-12-13T07:52:42.748Z,-5.31
2022-12-13T07:57:50.616Z,-5.19
2022-12-13T08:02:52.391Z,-5.16
2022-12-13T08:07:46.720Z,-5.15
2022-12-13T08:12:40.777Z,-5.09
2022-12-13T08:17:34.164Z,-5.13
2022-12-13T08:22:25.457Z,-5.02
2022-12-13T08:27:16.762Z,-4.92
2022-12-13T08:32:32.319Z,-4.81
2022-12-13T08:37:28.136Z,-4.67
2022-12-13T08:42:27.912Z,-4.60
2022-12-13T08:47:26.411Z,-4.54
2022-12-13T08:52:20.524Z,-4.55
2022-12-13T08:57:11.530Z,-4.27
2022-12-13T09:02:05.181Z,-4.15
2022-12-13T09:06:58.586Z,-4.05
2022-12-13T09:11:52.670Z,-3.87
2022-12-13T09:16:54.775Z,-3.70
2022-12-13T09:22:07.283Z,-3.55
2022-12-13T09:27:27.203Z,-3.42
2022-12-13T09:32:19.497Z,-3.19
2022-12-13T09:37:23.075Z,-2.97
2022-12-13T09:42:30.670Z,-2.73
2022-12-13T09:47:52.832Z,-2.29
2022-12-13T09:52:59.862Z,-1.70
2022-12-13T09:57:56.502Z,-1.75
2022-12-13T10:02:53.183Z,-1.54
2022-12-13T10:07:52.937Z,-1.28
2022-12-13T10:12:52.890Z,-1.24
2022-12-13T10:17:55.395Z,-1.28
2022-12-13T10:23:30.079Z,-1.28
2022-12-13T10:28:09.565Z,-1.19
2022-12-13T10:33:13.643Z,-1.13
2022-12-13T10:38:32.229Z,-0.93
2022-12-13T10:43:33.694Z,-0.81
2022-12-13T10:48:25.512Z,-0.78
2022-12-13T10:53:27.102Z,-0.82
2022-12-13T10:58:29.012Z,-0.91
2022-12-13T11:04:03.358Z,-1.01
2022-12-13T11:08:56.510Z,-1.10
2022-12-13T11:14:00.649Z,-1.16
2022-12-13T11:19:13.992Z,-1.10
2022-12-13T11:24:08.952Z,-1.05
2022-12-13T11:29:17.597Z,-0.99
2022-12-13T11:34:26.601Z,-0.85
2022-12-13T11:39:43.854Z,-0.74
2022-12-13T11:44:47.539Z,-0.69
2022-12-13T11:49:48.541Z,-0.64
2022-12-13T11:54:48.585Z,-0.52
2022-12-13T11:59:48.086Z,-0.45
2022-12-13T12:04:46.117Z,-0.41
2022-12-13T12:09:49.583Z,-0.42
2022-12-13T12:14:45.416Z,-0.45
2022-12-13T12:19:41.197Z,-0.51
2022-12-13T12:24:51.582Z,-0.62
2022-12-13T12:29:58.606Z,-0.76
2022-12-13T12:34:58.485Z,-0.79
2022-12-13T12:40:09.215Z,-0.86
2022-12-13T12:45:17.589Z,-0.93
2022-12-13T12:50:28.676Z,-1.00
2022-12-13T12:55:37.077Z,-1.11
2022-12-13T13:00:34.419Z,-1.18
2022-12-13T13:05:29.858Z,-1.20
2022-12-13T13:10:26.611Z,-1.21
2022-12-13T13:15:39.243Z,-1.21
2022-12-13T13:20:30.361Z,-1.23
2022-12-13T13:25:29.623Z,-1.24
2022-12-13T13:35:55.413Z,-1.26
2022-12-13T13:41:00.461Z,-1.28
2022-12-13T13:46:24.011Z,-1.30
2022-12-13T13:51:31.599Z,-1.31
2022-12-13T13:56:37.949Z,-1.32
2022-12-13T14:01:44.212Z,-1.38
2022-12-13T14:06:51.020Z,-1.41
2022-12-13T14:12:02.534Z,-1.42
2022-12-13T14:17:24.571Z,-1.44
2022-12-13T14:22:33.163Z,-1.46
2022-12-13T14:27:38.144Z,-1.49
2022-12-13T14:32:40.030Z,-1.58
2022-12-13T14:37:34.886Z,-1.56
2022-12-13T14:42:27.341Z,-1.58
2022-12-13T14:47:20.389Z,-1.59
2022-12-13T14:52:25.986Z,-1.69
2022-12-13T14:57:25.109Z,-1.71
2022-12-13T15:02:30.377Z,-1.72
2022-12-13T15:07:43.639Z,-1.76
2022-12-13T15:12:37.725Z,-1.78
2022-12-13T15:17:34.629Z,-1.82
2022-12-13T15:22:48.080Z,-1.84
2022-12-13T15:28:21.817Z,-1.87
2022-12-13T15:33:20.925Z,-1.89
2022-12-13T15:38:28.966Z,-1.92
2022-12-13T15:43:29.729Z,-1.93
2022-12-13T15:48:30.927Z,-1.95
2022-12-13T15:53:28.769Z,-1.96
2022-12-13T15:58:31.371Z,-1.98
2022-12-13T16:03:24.226Z,-2.00
2022-12-13T16:08:26.259Z,-2.03
2022-12-13T16:13:26.207Z,-2.03
2022-12-13T16:18:26.722Z,-2.05
2022-12-13T16:23:27.891Z,-2.07
2022-12-13T16:28:25.939Z,-2.08
2022-12-13T16:33:27.013Z,-2.11
2022-12-13T16:38:26.835Z,-2.11
2022-12-13T16:43:19.954Z,-2.13
2022-12-13T16:48:10.679Z,-2.15
2022-12-13T16:53:03.979Z,-2.17
2022-12-13T16:58:15.083Z,-2.20
2022-12-13T17:03:18.268Z,-2.22
2022-12-13T17:08:11.858Z,-2.23
2022-12-13T17:13:06.641Z,-2.24
2022-12-13T17:17:58.593Z,-2.24
2022-12-13T17:22:50.122Z,-2.25
2022-12-13T17:27:47.621Z,-2.27
2022-12-13T17:32:42.205Z,-2.28
2022-12-13T17:37:35.436Z,-2.29
2022-12-13T17:42:35.788Z,-2.30
2022-12-13T17:47:25.580Z,-2.30
2022-12-13T17:52:26.498Z,-2.32
2022-12-13T17:57:16.214Z,-2.34
2022-12-13T18:02:07.648Z,-2.37
2022-12-13T18:07:00.523Z,-2.39
2022-12-13T18:11:56.806Z,-2.40
2022-12-13T18:16:50.298Z,-2.44
2022-12-13T18:21:43.751Z,-2.47
2022-12-13T18:26:36.013Z,-2.50
2022-12-13T18:31:35.952Z,-2.50
2022-12-13T18:36:29.299Z,-2.52
2022-12-13T18:41:30.702Z,-2.54
2022-12-13T18:46:33.522Z,-2.55
2022-12-13T18:51:29.048Z,-2.53
2022-12-13T18:56:22.271Z,-2.53
2022-12-13T19:01:18.002Z,-2.51
2022-12-13T19:06:13.124Z,-2.52
2022-12-13T19:11:11.841Z,-2.51
2022-12-13T19:16:10.939Z,-2.50
2022-12-13T19:21:19.160Z,-2.52
2022-12-13T19:26:12.465Z,-2.52
2022-12-13T19:31:12.251Z,-2.52
2022-12-13T19:36:03.803Z,-2.54
2022-12-13T19:41:01.340Z,-2.53
2022-12-13T19:45:58.375Z,-2.51
2022-12-13T19:50:48.292Z,-2.52
2022-12-13T19:55:37.843Z,-2.53
2022-12-13T20:00:32.278Z,-2.54
2022-12-13T20:05:27.084Z,-2.57
2022-12-13T20:10:22.528Z,-2.58
2022-12-13T20:15:15.081Z,-2.64
2022-12-13T20:20:08.584Z,-2.70
2022-12-13T20:25:08.893Z,-2.73
2022-12-13T20:30:04.054Z,-2.76
2022-12-13T20:35:01.847Z,-2.77
2022-12-13T20:40:00.764Z,-2.80
2022-12-13T20:45:00.605Z,-2.83
2022-12-13T20:49:59.932Z,-2.84
2022-12-13T20:54:56.380Z,-2.87
2022-12-13T21:00:01.332Z,-2.89
2022-12-13T21:04:59.272Z,-2.91
2022-12-13T21:10:03.548Z,-2.92
2022-12-13T21:15:02.711Z,-2.95
2022-12-13T21:19:52.839Z,-2.96
2022-12-13T21:24:47.829Z,-2.94
2022-12-13T21:29:45.891Z,-2.93
2022-12-13T21:34:45.270Z,-2.93
2022-12-13T21:39:40.792Z,-2.92
2022-12-13T21:44:34.084Z,-2.93
2022-12-13T21:49:24.501Z,-2.90
2022-12-13T21:54:38.291Z,-2.87
2022-12-13T21:59:34.682Z,-2.84
2022-12-13T22:04:30.120Z,-2.79
2022-12-13T22:09:30.854Z,-2.81
2022-12-13T22:14:25.013Z,-2.79
2022-12-13T22:19:19.653Z,-2.76
2022-12-13T22:24:17.474Z,-2.76
2022-12-13T22:29:10.902Z,-2.75
2022-12-13T22:34:01.138Z,-2.77
2022-12-13T22:38:53.303Z,-2.75
2022-12-13T22:43:56.216Z,-2.79
2022-12-13T22:48:51.912Z,-2.79
2022-12-13T22:53:49.289Z,-2.77
2022-12-13T22:58:40.994Z,-2.77
2022-12-13T23:03:33.958Z,-2.75
2022-12-13T23:08:26.556Z,-2.75
2022-12-13T23:13:17.583Z,-2.73
2022-12-13T23:18:13.420Z,-2.72
2022-12-13T23:23:03.118Z,-2.71
2022-12-13T23:28:04.976Z,-2.71
2022-12-13T23:32:59.837Z,-2.70
2022-12-13T23:37:51.863Z,-2.71
2022-12-13T23:42:49.302Z,-2.72
2022-12-13T23:47:48.796Z,-2.75
2022-12-13T23:52:39.576Z,-2.75
2022-12-13T23:57:35.409Z,-2.76
